sensor_id;sensor_type;location;lat;lon;timestamp;P1;durP1;ratioP1;P2;durP2;ratioP2
38851;SDS011;24605;50.092;9.182;2023-09-30T00:01:36;12.60;;;4.13;;
38851;SDS011;24605;50.092;9.182;2023-09-30T00:04:03;12.75;;;4.00;;
38851;SDS011;24605;50.092;9.182;2023-09-30T00:06:32;10.23;;;4.25;;
38851;SDS011;24605;50.092;9.182;2023-09-30T00:08:59;9.88;;;4.30;;
38851;SDS011;24605;50.092;9.182;2023-09-30T00:11:26;10.32;;;4.32;;
38851;SDS011;24605;50.092;9.182;2023-09-30T00:13:52;14.90;;;5.15;;
38851;SDS011;24605;50.092;9.182;2023-09-30T00:16:19;9.85;;;3.72;;
38851;SDS011;24605;50.092;9.182;2023-09-30T00:18:45;11.30;;;3.97;;
38851;SDS011;24605;50.092;9.182;2023-09-30T00:21:12;9.93;;;3.80;;
38851;SDS011;24605;50.092;9.182;2023-09-30T00:23:40;11.68;;;3.63;;
38851;SDS011;24605;50.092;9.182;2023-09-30T00:26:07;11.40;;;3.90;;
38851;SDS011;24605;50.092;9.182;2023-09-30T00:28:34;12.98;;;4.25;;
38851;SDS011;24605;50.092;9.182;2023-09-30T00:31:00;11.15;;;4.22;;
38851;SDS011;24605;50.092;9.182;2023-09-30T00:33:27;15.40;;;4.80;;
38851;SDS011;24605;50.092;9.182;2023-09-30T00:35:53;8.60;;;4.20;;
38851;SDS011;24605;50.092;9.182;2023-09-30T00:38:20;8.90;;;3.78;;
38851;SDS011;24605;50.092;9.182;2023-09-30T00:40:49;9.43;;;3.85;;
38851;SDS011;24605;50.092;9.182;2023-09-30T00:43:20;10.85;;;4.20;;
38851;SDS011;24605;50.092;9.182;2023-09-30T00:45:47;9.73;;;3.83;;
38851;SDS011;24605;50.092;9.182;2023-09-30T00:48:15;14.43;;;4.22;;
38851;SDS011;24605;50.092;9.182;2023-09-30T00:50:42;8.77;;;3.95;;
38851;SDS011;24605;50.092;9.182;2023-09-30T00:53:09;14.90;;;4.45;;
38851;SDS011;24605;50.092;9.182;2023-09-30T00:55:36;10.63;;;4.10;;
38851;SDS011;24605;50.092;9.182;2023-09-30T00:58:03;12.40;;;4.95;;
38851;SDS011;24605;50.092;9.182;2023-09-30T01:00:31;11.68;;;4.10;;
38851;SDS011;24605;50.092;9.182;2023-09-30T01:02:58;11.02;;;3.88;;
38851;SDS011;24605;50.092;9.182;2023-09-30T01:05:28;11.27;;;4.60;;
38851;SDS011;24605;50.092;9.182;2023-09-30T01:07:55;8.40;;;4.53;;
38851;SDS011;24605;50.092;9.182;2023-09-30T01:10:22;12.55;;;4.85;;
38851;SDS011;24605;50.092;9.182;2023-09-30T01:12:48;11.07;;;5.07;;
38851;SDS011;24605;50.092;9.182;2023-09-30T01:15:15;15.48;;;5.93;;
38851;SDS011;24605;50.092;9.182;2023-09-30T01:17:42;16.63;;;6.07;;
38851;SDS011;24605;50.092;9.182;2023-09-30T01:20:09;23.58;;;8.00;;
38851;SDS011;24605;50.092;9.182;2023-09-30T01:22:42;14.27;;;6.63;;
38851;SDS011;24605;50.092;9.182;2023-09-30T01:25:10;19.10;;;7.75;;
38851;SDS011;24605;50.092;9.182;2023-09-30T01:27:36;19.50;;;7.72;;
38851;SDS011;24605;50.092;9.182;2023-09-30T01:30:03;17.52;;;8.88;;
38851;SDS011;24605;50.092;9.182;2023-09-30T01:32:31;21.95;;;9.40;;
38851;SDS011;24605;50.092;9.182;2023-09-30T01:34:57;20.75;;;9.38;;
38851;SDS011;24605;50.092;9.182;2023-09-30T01:37:26;18.48;;;10.10;;
38851;SDS011;24605;50.092;9.182;2023-09-30T01:39:55;19.65;;;10.43;;
38851;SDS011;24605;50.092;9.182;2023-09-30T01:42:21;20.83;;;9.63;;
38851;SDS011;24605;50.092;9.182;2023-09-30T01:44:47;20.10;;;10.90;;
38851;SDS011;24605;50.092;9.182;2023-09-30T01:47:14;20.50;;;11.75;;
38851;SDS011;24605;50.092;9.182;2023-09-30T01:49:40;22.40;;;11.35;;
38851;SDS011;24605;50.092;9.182;2023-09-30T01:52:07;19.50;;;11.52;;
38851;SDS011;24605;50.092;9.182;2023-09-30T01:54:33;22.20;;;11.35;;
38851;SDS011;24605;50.092;9.182;2023-09-30T01:57:01;20.35;;;12.02;;
38851;SDS011;24605;50.092;9.182;2023-09-30T01:59:28;24.15;;;12.07;;
38851;SDS011;24605;50.092;9.182;2023-09-30T02:01:54;21.55;;;12.07;;
38851;SDS011;24605;50.092;9.182;2023-09-30T02:04:21;23.27;;;11.82;;
38851;SDS011;24605;50.092;9.182;2023-09-30T02:06:48;19.58;;;11.20;;
38851;SDS011;24605;50.092;9.182;2023-09-30T02:09:14;24.15;;;12.65;;
38851;SDS011;24605;50.092;9.182;2023-09-30T02:11:41;21.42;;;12.38;;
38851;SDS011;24605;50.092;9.182;2023-09-30T02:14:09;21.80;;;11.75;;
38851;SDS011;24605;50.092;9.182;2023-09-30T02:16:37;23.92;;;12.00;;
38851;SDS011;24605;50.092;9.182;2023-09-30T02:19:03;27.00;;;12.60;;
38851;SDS011;24605;50.092;9.182;2023-09-30T02:21:31;24.25;;;12.00;;
38851;SDS011;24605;50.092;9.182;2023-09-30T02:23:58;17.42;;;11.50;;
38851;SDS011;24605;50.092;9.182;2023-09-30T02:26:24;19.35;;;11.82;;
38851;SDS011;24605;50.092;9.182;2023-09-30T02:28:52;24.95;;;12.70;;
38851;SDS011;24605;50.092;9.182;2023-09-30T02:31:20;28.00;;;13.23;;
38851;SDS011;24605;50.092;9.182;2023-09-30T02:33:46;21.95;;;11.43;;
38851;SDS011;24605;50.092;9.182;2023-09-30T02:36:13;21.80;;;11.77;;
38851;SDS011;24605;50.092;9.182;2023-09-30T02:38:40;17.27;;;10.70;;
38851;SDS011;24605;50.092;9.182;2023-09-30T02:41:07;21.30;;;12.77;;
38851;SDS011;24605;50.092;9.182;2023-09-30T02:43:33;20.45;;;11.68;;
38851;SDS011;24605;50.092;9.182;2023-09-30T02:46:00;25.23;;;13.82;;
38851;SDS011;24605;50.092;9.182;2023-09-30T02:48:28;24.58;;;13.27;;
38851;SDS011;24605;50.092;9.182;2023-09-30T02:50:55;22.98;;;13.60;;
38851;SDS011;24605;50.092;9.182;2023-09-30T02:53:22;27.38;;;14.80;;
38851;SDS011;24605;50.092;9.182;2023-09-30T02:55:48;27.42;;;14.48;;
38851;SDS011;24605;50.092;9.182;2023-09-30T02:58:17;26.02;;;13.52;;
38851;SDS011;24605;50.092;9.182;2023-09-30T03:00:47;27.35;;;14.68;;
38851;SDS011;24605;50.092;9.182;2023-09-30T03:03:14;28.45;;;14.27;;
38851;SDS011;24605;50.092;9.182;2023-09-30T03:05:42;26.15;;;14.50;;
38851;SDS011;24605;50.092;9.182;2023-09-30T03:08:10;28.05;;;13.73;;
38851;SDS011;24605;50.092;9.182;2023-09-30T03:10:37;26.95;;;13.95;;
38851;SDS011;24605;50.092;9.182;2023-09-30T03:13:05;26.92;;;14.27;;
38851;SDS011;24605;50.092;9.182;2023-09-30T03:15:34;28.05;;;14.07;;
38851;SDS011;24605;50.092;9.182;2023-09-30T03:18:00;23.42;;;13.70;;
38851;SDS011;24605;50.092;9.182;2023-09-30T03:20:28;25.73;;;13.43;;
38851;SDS011;24605;50.092;9.182;2023-09-30T03:22:57;27.10;;;14.70;;
38851;SDS011;24605;50.092;9.182;2023-09-30T03:25:24;29.20;;;15.40;;
38851;SDS011;24605;50.092;9.182;2023-09-30T03:27:51;30.50;;;14.77;;
38851;SDS011;24605;50.092;9.182;2023-09-30T03:30:17;33.50;;;15.32;;
38851;SDS011;24605;50.092;9.182;2023-09-30T03:32:45;29.15;;;15.07;;
38851;SDS011;24605;50.092;9.182;2023-09-30T03:35:11;28.75;;;16.13;;
38851;SDS011;24605;50.092;9.182;2023-09-30T03:37:41;28.65;;;14.05;;
38851;SDS011;24605;50.092;9.182;2023-09-30T03:40:10;30.88;;;14.93;;
38851;SDS011;24605;50.092;9.182;2023-09-30T03:42:43;31.08;;;14.77;;
38851;SDS011;24605;50.092;9.182;2023-09-30T03:45:11;31.92;;;13.70;;
38851;SDS011;24605;50.092;9.182;2023-09-30T03:47:39;27.95;;;15.23;;
38851;SDS011;24605;50.092;9.182;2023-09-30T03:50:07;25.33;;;14.20;;
38851;SDS011;24605;50.092;9.182;2023-09-30T03:52:38;25.70;;;14.00;;
38851;SDS011;24605;50.092;9.182;2023-09-30T03:55:05;28.30;;;14.40;;
38851;SDS011;24605;50.092;9.182;2023-09-30T03:57:34;33.72;;;15.07;;
38851;SDS011;24605;50.092;9.182;2023-09-30T04:00:00;28.23;;;14.25;;
38851;SDS011;24605;50.092;9.182;2023-09-30T04:02:31;30.25;;;14.68;;
38851;SDS011;24605;50.092;9.182;2023-09-30T04:04:57;32.25;;;15.93;;
38851;SDS011;24605;50.092;9.182;2023-09-30T04:07:25;32.33;;;16.85;;
38851;SDS011;24605;50.092;9.182;2023-09-30T04:09:53;34.03;;;16.02;;
38851;SDS011;24605;50.092;9.182;2023-09-30T04:12:20;31.83;;;17.20;;
38851;SDS011;24605;50.092;9.182;2023-09-30T04:14:48;36.63;;;17.73;;
38851;SDS011;24605;50.092;9.182;2023-09-30T04:17:14;28.60;;;16.42;;
38851;SDS011;24605;50.092;9.182;2023-09-30T04:19:41;36.50;;;16.02;;
38851;SDS011;24605;50.092;9.182;2023-09-30T04:22:07;36.53;;;19.50;;
38851;SDS011;24605;50.092;9.182;2023-09-30T04:24:34;31.20;;;16.52;;
38851;SDS011;24605;50.092;9.182;2023-09-30T04:27:00;30.33;;;15.02;;
38851;SDS011;24605;50.092;9.182;2023-09-30T04:29:29;29.05;;;13.93;;
38851;SDS011;24605;50.092;9.182;2023-09-30T04:31:57;30.98;;;13.52;;
38851;SDS011;24605;50.092;9.182;2023-09-30T04:34:24;34.03;;;14.70;;
38851;SDS011;24605;50.092;9.182;2023-09-30T04:36:52;28.20;;;14.40;;
38851;SDS011;24605;50.092;9.182;2023-09-30T04:39:19;25.63;;;14.27;;
38851;SDS011;24605;50.092;9.182;2023-09-30T04:41:45;29.95;;;14.50;;
38851;SDS011;24605;50.092;9.182;2023-09-30T04:44:12;28.02;;;14.57;;
38851;SDS011;24605;50.092;9.182;2023-09-30T04:46:38;22.00;;;12.05;;
38851;SDS011;24605;50.092;9.182;2023-09-30T04:49:07;28.45;;;12.80;;
38851;SDS011;24605;50.092;9.182;2023-09-30T04:51:34;21.05;;;11.10;;
38851;SDS011;24605;50.092;9.182;2023-09-30T04:54:00;22.95;;;11.65;;
38851;SDS011;24605;50.092;9.182;2023-09-30T04:56:28;20.88;;;11.02;;
38851;SDS011;24605;50.092;9.182;2023-09-30T04:58:55;21.50;;;10.60;;
38851;SDS011;24605;50.092;9.182;2023-09-30T05:01:22;21.83;;;11.35;;
38851;SDS011;24605;50.092;9.182;2023-09-30T05:03:48;26.05;;;11.27;;
38851;SDS011;24605;50.092;9.182;2023-09-30T05:06:16;20.73;;;10.57;;
38851;SDS011;24605;50.092;9.182;2023-09-30T05:08:43;21.38;;;10.13;;
38851;SDS011;24605;50.092;9.182;2023-09-30T05:11:09;20.17;;;10.02;;
38851;SDS011;24605;50.092;9.182;2023-09-30T05:13:36;17.63;;;9.50;;
38851;SDS011;24605;50.092;9.182;2023-09-30T05:16:02;19.38;;;9.00;;
38851;SDS011;24605;50.092;9.182;2023-09-30T05:18:29;16.98;;;9.88;;
38851;SDS011;24605;50.092;9.182;2023-09-30T05:20:55;19.95;;;9.43;;
38851;SDS011;24605;50.092;9.182;2023-09-30T05:23:23;20.13;;;10.57;;
38851;SDS011;24605;50.092;9.182;2023-09-30T05:25:50;18.38;;;9.40;;
38851;SDS011;24605;50.092;9.182;2023-09-30T05:28:18;15.18;;;9.48;;
38851;SDS011;24605;50.092;9.182;2023-09-30T05:30:46;24.73;;;11.57;;
38851;SDS011;24605;50.092;9.182;2023-09-30T05:33:12;25.02;;;10.20;;
38851;SDS011;24605;50.092;9.182;2023-09-30T05:35:39;18.75;;;9.98;;
38851;SDS011;24605;50.092;9.182;2023-09-30T05:38:06;17.45;;;9.43;;
38851;SDS011;24605;50.092;9.182;2023-09-30T05:40:34;20.13;;;9.25;;
38851;SDS011;24605;50.092;9.182;2023-09-30T05:43:01;18.40;;;9.98;;
38851;SDS011;24605;50.092;9.182;2023-09-30T05:45:30;19.73;;;9.48;;
38851;SDS011;24605;50.092;9.182;2023-09-30T05:47:59;20.45;;;9.48;;
38851;SDS011;24605;50.092;9.182;2023-09-30T05:50:30;16.40;;;9.18;;
38851;SDS011;24605;50.092;9.182;2023-09-30T05:52:56;20.50;;;9.70;;
38851;SDS011;24605;50.092;9.182;2023-09-30T05:55:23;20.25;;;10.38;;
38851;SDS011;24605;50.092;9.182;2023-09-30T05:57:51;15.68;;;9.05;;
38851;SDS011;24605;50.092;9.182;2023-09-30T06:00:19;18.10;;;9.32;;
38851;SDS011;24605;50.092;9.182;2023-09-30T06:02:48;21.48;;;9.63;;
38851;SDS011;24605;50.092;9.182;2023-09-30T06:05:16;16.65;;;9.15;;
38851;SDS011;24605;50.092;9.182;2023-09-30T06:07:43;17.25;;;9.55;;
38851;SDS011;24605;50.092;9.182;2023-09-30T06:10:10;19.92;;;11.13;;
38851;SDS011;24605;50.092;9.182;2023-09-30T06:12:37;21.42;;;10.32;;
38851;SDS011;24605;50.092;9.182;2023-09-30T06:15:07;20.55;;;10.48;;
38851;SDS011;24605;50.092;9.182;2023-09-30T06:17:34;22.55;;;11.45;;
38851;SDS011;24605;50.092;9.182;2023-09-30T06:20:00;22.52;;;11.77;;
38851;SDS011;24605;50.092;9.182;2023-09-30T06:22:34;24.03;;;11.90;;
38851;SDS011;24605;50.092;9.182;2023-09-30T06:25:00;22.83;;;10.82;;
38851;SDS011;24605;50.092;9.182;2023-09-30T06:27:27;21.02;;;10.98;;
38851;SDS011;24605;50.092;9.182;2023-09-30T06:29:53;22.25;;;11.10;;
38851;SDS011;24605;50.092;9.182;2023-09-30T06:32:22;20.70;;;10.52;;
38851;SDS011;24605;50.092;9.182;2023-09-30T06:34:48;20.20;;;11.02;;
38851;SDS011;24605;50.092;9.182;2023-09-30T06:37:15;22.88;;;11.25;;
38851;SDS011;24605;50.092;9.182;2023-09-30T06:39:43;21.15;;;10.77;;
38851;SDS011;24605;50.092;9.182;2023-09-30T06:42:10;18.30;;;10.65;;
38851;SDS011;24605;50.092;9.182;2023-09-30T06:44:36;18.48;;;10.73;;
38851;SDS011;24605;50.092;9.182;2023-09-30T06:47:03;19.88;;;10.55;;
38851;SDS011;24605;50.092;9.182;2023-09-30T06:49:33;19.67;;;10.70;;
38851;SDS011;24605;50.092;9.182;2023-09-30T06:51:59;17.67;;;10.63;;
38851;SDS011;24605;50.092;9.182;2023-09-30T06:54:28;20.88;;;10.00;;
38851;SDS011;24605;50.092;9.182;2023-09-30T06:56:54;20.48;;;10.20;;
38851;SDS011;24605;50.092;9.182;2023-09-30T06:59:21;22.35;;;10.77;;
38851;SDS011;24605;50.092;9.182;2023-09-30T07:01:47;17.77;;;10.27;;
38851;SDS011;24605;50.092;9.182;2023-09-30T07:04:13;34.38;;;11.15;;
38851;SDS011;24605;50.092;9.182;2023-09-30T07:06:41;20.98;;;11.70;;
38851;SDS011;24605;50.092;9.182;2023-09-30T07:09:08;23.85;;;11.57;;
38851;SDS011;24605;50.092;9.182;2023-09-30T07:11:35;24.33;;;12.50;;
38851;SDS011;24605;50.092;9.182;2023-09-30T07:14:02;26.80;;;13.25;;
38851;SDS011;24605;50.092;9.182;2023-09-30T07:16:28;24.58;;;11.27;;
38851;SDS011;24605;50.092;9.182;2023-09-30T07:18:55;25.90;;;12.27;;
38851;SDS011;24605;50.092;9.182;2023-09-30T07:21:22;20.90;;;11.68;;
38851;SDS011;24605;50.092;9.182;2023-09-30T07:23:49;20.30;;;11.45;;
38851;SDS011;24605;50.092;9.182;2023-09-30T07:26:16;19.67;;;10.45;;
38851;SDS011;24605;50.092;9.182;2023-09-30T07:28:43;20.00;;;10.98;;
38851;SDS011;24605;50.092;9.182;2023-09-30T07:31:09;20.73;;;11.13;;
38851;SDS011;24605;50.092;9.182;2023-09-30T07:33:35;26.52;;;13.35;;
38851;SDS011;24605;50.092;9.182;2023-09-30T07:36:02;23.80;;;12.75;;
38851;SDS011;24605;50.092;9.182;2023-09-30T07:38:29;21.00;;;12.13;;
38851;SDS011;24605;50.092;9.182;2023-09-30T07:40:57;24.23;;;13.57;;
38851;SDS011;24605;50.092;9.182;2023-09-30T07:43:23;18.00;;;11.32;;
38851;SDS011;24605;50.092;9.182;2023-09-30T07:45:49;24.50;;;11.55;;
38851;SDS011;24605;50.092;9.182;2023-09-30T07:48:17;18.05;;;10.98;;
38851;SDS011;24605;50.092;9.182;2023-09-30T07:50:47;23.77;;;10.85;;
38851;SDS011;24605;50.092;9.182;2023-09-30T07:53:17;19.73;;;10.55;;
38851;SDS011;24605;50.092;9.182;2023-09-30T07:55:44;15.63;;;9.02;;
38851;SDS011;24605;50.092;9.182;2023-09-30T07:58:11;16.00;;;8.68;;
38851;SDS011;24605;50.092;9.182;2023-09-30T08:00:38;15.77;;;8.23;;
38851;SDS011;24605;50.092;9.182;2023-09-30T08:03:04;16.65;;;8.32;;
38851;SDS011;24605;50.092;9.182;2023-09-30T08:05:31;14.80;;;7.30;;
38851;SDS011;24605;50.092;9.182;2023-09-30T08:07:57;13.95;;;7.40;;
38851;SDS011;24605;50.092;9.182;2023-09-30T08:10:24;11.93;;;6.45;;
38851;SDS011;24605;50.092;9.182;2023-09-30T08:12:50;13.98;;;6.53;;
38851;SDS011;24605;50.092;9.182;2023-09-30T08:15:19;11.25;;;5.40;;
38851;SDS011;24605;50.092;9.182;2023-09-30T08:17:45;13.52;;;6.35;;
38851;SDS011;24605;50.092;9.182;2023-09-30T08:20:12;10.80;;;5.10;;
38851;SDS011;24605;50.092;9.182;2023-09-30T08:22:38;14.75;;;6.25;;
38851;SDS011;24605;50.092;9.182;2023-09-30T08:25:06;13.40;;;6.10;;
38851;SDS011;24605;50.092;9.182;2023-09-30T08:27:33;12.10;;;5.93;;
38851;SDS011;24605;50.092;9.182;2023-09-30T08:30:00;11.38;;;5.13;;
38851;SDS011;24605;50.092;9.182;2023-09-30T08:32:32;10.45;;;5.07;;
38851;SDS011;24605;50.092;9.182;2023-09-30T08:34:59;12.20;;;6.07;;
38851;SDS011;24605;50.092;9.182;2023-09-30T08:37:27;11.43;;;5.22;;
38851;SDS011;24605;50.092;9.182;2023-09-30T08:39:54;13.32;;;5.25;;
38851;SDS011;24605;50.092;9.182;2023-09-30T08:42:20;11.75;;;5.85;;
38851;SDS011;24605;50.092;9.182;2023-09-30T08:44:49;13.68;;;5.68;;
38851;SDS011;24605;50.092;9.182;2023-09-30T08:47:19;13.35;;;5.43;;
38851;SDS011;24605;50.092;9.182;2023-09-30T08:49:49;10.68;;;4.60;;
38851;SDS011;24605;50.092;9.182;2023-09-30T08:52:26;9.13;;;4.45;;
38851;SDS011;24605;50.092;9.182;2023-09-30T08:54:53;13.43;;;5.40;;
38851;SDS011;24605;50.092;9.182;2023-09-30T08:57:19;12.80;;;5.10;;
38851;SDS011;24605;50.092;9.182;2023-09-30T08:59:46;9.90;;;4.88;;
38851;SDS011;24605;50.092;9.182;2023-09-30T09:02:15;9.27;;;4.82;;
38851;SDS011;24605;50.092;9.182;2023-09-30T09:04:41;8.27;;;4.68;;
38851;SDS011;24605;50.092;9.182;2023-09-30T09:07:10;14.02;;;4.80;;
38851;SDS011;24605;50.092;9.182;2023-09-30T09:09:36;10.63;;;4.72;;
38851;SDS011;24605;50.092;9.182;2023-09-30T09:12:03;10.85;;;5.05;;
38851;SDS011;24605;50.092;9.182;2023-09-30T09:14:36;9.20;;;4.30;;
38851;SDS011;24605;50.092;9.182;2023-09-30T09:17:04;10.00;;;4.75;;
38851;SDS011;24605;50.092;9.182;2023-09-30T09:19:32;11.00;;;5.15;;
38851;SDS011;24605;50.092;9.182;2023-09-30T09:21:59;13.60;;;4.47;;
38851;SDS011;24605;50.092;9.182;2023-09-30T09:24:31;11.07;;;5.00;;
38851;SDS011;24605;50.092;9.182;2023-09-30T09:27:05;9.02;;;4.93;;
38851;SDS011;24605;50.092;9.182;2023-09-30T09:29:32;10.13;;;4.47;;
38851;SDS011;24605;50.092;9.182;2023-09-30T09:32:09;11.20;;;4.72;;
38851;SDS011;24605;50.092;9.182;2023-09-30T09:34:36;11.77;;;4.40;;
38851;SDS011;24605;50.092;9.182;2023-09-30T09:37:12;15.25;;;4.05;;
38851;SDS011;24605;50.092;9.182;2023-09-30T09:39:45;14.48;;;4.22;;
38851;SDS011;24605;50.092;9.182;2023-09-30T09:42:23;10.50;;;4.40;;
38851;SDS011;24605;50.092;9.182;2023-09-30T09:44:50;11.38;;;4.55;;
38851;SDS011;24605;50.092;9.182;2023-09-30T09:47:20;15.30;;;4.45;;
38851;SDS011;24605;50.092;9.182;2023-09-30T09:49:47;10.32;;;3.92;;
38851;SDS011;24605;50.092;9.182;2023-09-30T09:52:14;12.00;;;4.22;;
38851;SDS011;24605;50.092;9.182;2023-09-30T09:54:41;8.63;;;4.10;;
38851;SDS011;24605;50.092;9.182;2023-09-30T09:57:10;16.67;;;4.53;;
38851;SDS011;24605;50.092;9.182;2023-09-30T09:59:38;12.73;;;4.75;;
38851;SDS011;24605;50.092;9.182;2023-09-30T10:02:06;10.30;;;4.75;;
38851;SDS011;24605;50.092;9.182;2023-09-30T10:04:36;9.00;;;4.55;;
38851;SDS011;24605;50.092;9.182;2023-09-30T10:07:03;10.48;;;4.40;;
38851;SDS011;24605;50.092;9.182;2023-09-30T10:09:32;8.40;;;4.22;;
38851;SDS011;24605;50.092;9.182;2023-09-30T10:12:01;11.07;;;4.78;;
38851;SDS011;24605;50.092;9.182;2023-09-30T10:14:33;10.07;;;4.13;;
38851;SDS011;24605;50.092;9.182;2023-09-30T10:17:01;10.65;;;4.43;;
38851;SDS011;24605;50.092;9.182;2023-09-30T10:19:28;10.02;;;4.00;;
38851;SDS011;24605;50.092;9.182;2023-09-30T10:24:47;9.15;;;3.75;;
38851;SDS011;24605;50.092;9.182;2023-09-30T10:27:27;9.35;;;3.67;;
38851;SDS011;24605;50.092;9.182;2023-09-30T10:30:08;12.07;;;4.53;;
38851;SDS011;24605;50.092;9.182;2023-09-30T10:35:41;8.10;;;3.45;;
38851;SDS011;24605;50.092;9.182;2023-09-30T10:41:07;11.95;;;4.25;;
38851;SDS011;24605;50.092;9.182;2023-09-30T10:43:34;10.50;;;4.30;;
38851;SDS011;24605;50.092;9.182;2023-09-30T10:46:05;9.20;;;3.58;;
38851;SDS011;24605;50.092;9.182;2023-09-30T10:49:10;8.63;;;3.67;;
38851;SDS011;24605;50.092;9.182;2023-09-30T10:51:42;11.60;;;3.92;;
38851;SDS011;24605;50.092;9.182;2023-09-30T10:54:09;10.35;;;3.90;;
38851;SDS011;24605;50.092;9.182;2023-09-30T10:56:38;9.20;;;3.80;;
38851;SDS011;24605;50.092;9.182;2023-09-30T10:59:05;11.70;;;3.90;;
38851;SDS011;24605;50.092;9.182;2023-09-30T11:01:34;10.63;;;3.58;;
38851;SDS011;24605;50.092;9.182;2023-09-30T11:04:01;9.23;;;3.65;;
38851;SDS011;24605;50.092;9.182;2023-09-30T11:06:30;10.07;;;4.13;;
38851;SDS011;24605;50.092;9.182;2023-09-30T11:08:59;13.15;;;3.78;;
38851;SDS011;24605;50.092;9.182;2023-09-30T11:11:37;9.52;;;3.70;;
38851;SDS011;24605;50.092;9.182;2023-09-30T11:14:17;7.90;;;3.83;;
38851;SDS011;24605;50.092;9.182;2023-09-30T11:16:46;10.35;;;3.90;;
38851;SDS011;24605;50.092;9.182;2023-09-30T11:19:13;9.00;;;3.58;;
38851;SDS011;24605;50.092;9.182;2023-09-30T11:21:40;10.35;;;3.92;;
38851;SDS011;24605;50.092;9.182;2023-09-30T11:24:08;11.50;;;3.42;;
38851;SDS011;24605;50.092;9.182;2023-09-30T11:26:35;15.80;;;3.95;;
38851;SDS011;24605;50.092;9.182;2023-09-30T11:29:05;9.70;;;4.00;;
38851;SDS011;24605;50.092;9.182;2023-09-30T11:31:32;10.57;;;3.60;;
38851;SDS011;24605;50.092;9.182;2023-09-30T11:34:00;8.30;;;3.03;;
38851;SDS011;24605;50.092;9.182;2023-09-30T11:36:29;8.63;;;3.47;;
38851;SDS011;24605;50.092;9.182;2023-09-30T11:38:56;10.68;;;3.60;;
38851;SDS011;24605;50.092;9.182;2023-09-30T11:41:31;7.32;;;3.05;;
38851;SDS011;24605;50.092;9.182;2023-09-30T11:43:59;7.45;;;2.97;;
38851;SDS011;24605;50.092;9.182;2023-09-30T11:46:33;6.95;;;2.97;;
38851;SDS011;24605;50.092;9.182;2023-09-30T11:49:23;10.05;;;2.63;;
38851;SDS011;24605;50.092;9.182;2023-09-30T11:51:54;7.95;;;2.80;;
38851;SDS011;24605;50.092;9.182;2023-09-30T11:54:20;8.60;;;2.60;;
38851;SDS011;24605;50.092;9.182;2023-09-30T11:56:48;8.40;;;2.83;;
38851;SDS011;24605;50.092;9.182;2023-09-30T11:59:15;10.60;;;2.92;;
38851;SDS011;24605;50.092;9.182;2023-09-30T12:01:44;9.80;;;2.60;;
38851;SDS011;24605;50.092;9.182;2023-09-30T12:04:13;10.43;;;2.83;;
38851;SDS011;24605;50.092;9.182;2023-09-30T12:06:44;7.80;;;2.95;;
38851;SDS011;24605;50.092;9.182;2023-09-30T12:09:10;10.85;;;2.80;;
38851;SDS011;24605;50.092;9.182;2023-09-30T12:11:39;8.38;;;2.70;;
38851;SDS011;24605;50.092;9.182;2023-09-30T12:14:09;7.68;;;2.17;;
38851;SDS011;24605;50.092;9.182;2023-09-30T12:16:36;8.55;;;2.28;;
38851;SDS011;24605;50.092;9.182;2023-09-30T12:19:02;5.13;;;1.88;;
38851;SDS011;24605;50.092;9.182;2023-09-30T12:21:31;8.18;;;2.17;;
38851;SDS011;24605;50.092;9.182;2023-09-30T12:23:59;5.97;;;2.05;;
38851;SDS011;24605;50.092;9.182;2023-09-30T12:26:25;6.10;;;2.25;;
38851;SDS011;24605;50.092;9.182;2023-09-30T12:28:52;7.75;;;2.80;;
38851;SDS011;24605;50.092;9.182;2023-09-30T12:31:18;9.65;;;2.85;;
38851;SDS011;24605;50.092;9.182;2023-09-30T12:33:45;6.75;;;2.17;;
38851;SDS011;24605;50.092;9.182;2023-09-30T12:36:15;8.40;;;2.97;;
38851;SDS011;24605;50.092;9.182;2023-09-30T12:38:43;7.65;;;2.55;;
38851;SDS011;24605;50.092;9.182;2023-09-30T12:41:09;6.35;;;2.67;;
38851;SDS011;24605;50.092;9.182;2023-09-30T12:43:36;8.32;;;2.70;;
38851;SDS011;24605;50.092;9.182;2023-09-30T12:46:03;10.98;;;3.03;;
38851;SDS011;24605;50.092;9.182;2023-09-30T12:48:30;7.22;;;2.80;;
38851;SDS011;24605;50.092;9.182;2023-09-30T12:50:57;6.13;;;2.90;;
38851;SDS011;24605;50.092;9.182;2023-09-30T12:53:23;7.88;;;2.10;;
38851;SDS011;24605;50.092;9.182;2023-09-30T12:55:51;6.55;;;2.22;;
38851;SDS011;24605;50.092;9.182;2023-09-30T12:58:18;6.43;;;2.13;;
38851;SDS011;24605;50.092;9.182;2023-09-30T13:00:44;9.52;;;2.42;;
38851;SDS011;24605;50.092;9.182;2023-09-30T13:03:12;5.45;;;1.95;;
38851;SDS011;24605;50.092;9.182;2023-09-30T13:05:40;7.53;;;1.90;;
38851;SDS011;24605;50.092;9.182;2023-09-30T13:08:07;8.52;;;2.00;;
38851;SDS011;24605;50.092;9.182;2023-09-30T13:10:33;7.80;;;2.40;;
38851;SDS011;24605;50.092;9.182;2023-09-30T13:13:01;7.68;;;2.17;;
38851;SDS011;24605;50.092;9.182;2023-09-30T13:15:27;4.97;;;2.10;;
38851;SDS011;24605;50.092;9.182;2023-09-30T13:17:54;8.23;;;2.25;;
38851;SDS011;24605;50.092;9.182;2023-09-30T13:20:20;6.30;;;2.40;;
38851;SDS011;24605;50.092;9.182;2023-09-30T13:22:47;7.93;;;2.20;;
38851;SDS011;24605;50.092;9.182;2023-09-30T13:25:13;5.82;;;2.20;;
38851;SDS011;24605;50.092;9.182;2023-09-30T13:27:40;4.38;;;1.88;;
38851;SDS011;24605;50.092;9.182;2023-09-30T13:30:09;4.20;;;1.90;;
38851;SDS011;24605;50.092;9.182;2023-09-30T13:32:36;7.75;;;2.35;;
38851;SDS011;24605;50.092;9.182;2023-09-30T13:35:03;8.35;;;2.47;;
38851;SDS011;24605;50.092;9.182;2023-09-30T13:37:30;5.90;;;2.25;;
38851;SDS011;24605;50.092;9.182;2023-09-30T13:39:58;5.97;;;2.25;;
38851;SDS011;24605;50.092;9.182;2023-09-30T13:42:25;5.28;;;1.85;;
38851;SDS011;24605;50.092;9.182;2023-09-30T13:44:52;8.18;;;2.22;;
38851;SDS011;24605;50.092;9.182;2023-09-30T13:47:19;8.63;;;2.65;;
38851;SDS011;24605;50.092;9.182;2023-09-30T13:49:47;6.40;;;2.42;;
38851;SDS011;24605;50.092;9.182;2023-09-30T13:52:13;8.85;;;2.58;;
38851;SDS011;24605;50.092;9.182;2023-09-30T13:54:39;7.63;;;2.10;;
38851;SDS011;24605;50.092;9.182;2023-09-30T13:57:06;7.65;;;2.40;;
38851;SDS011;24605;50.092;9.182;2023-09-30T13:59:33;6.30;;;2.53;;
38851;SDS011;24605;50.092;9.182;2023-09-30T14:02:01;8.23;;;2.75;;
38851;SDS011;24605;50.092;9.182;2023-09-30T14:04:28;8.68;;;2.38;;
38851;SDS011;24605;50.092;9.182;2023-09-30T14:06:56;5.13;;;2.10;;
38851;SDS011;24605;50.092;9.182;2023-09-30T14:09:25;10.32;;;2.70;;
38851;SDS011;24605;50.092;9.182;2023-09-30T14:11:51;6.90;;;1.98;;
38851;SDS011;24605;50.092;9.182;2023-09-30T14:14:18;7.25;;;2.15;;
38851;SDS011;24605;50.092;9.182;2023-09-30T14:16:44;8.63;;;2.05;;
38851;SDS011;24605;50.092;9.182;2023-09-30T14:19:11;7.20;;;2.13;;
38851;SDS011;24605;50.092;9.182;2023-09-30T14:21:40;7.30;;;2.15;;
38851;SDS011;24605;50.092;9.182;2023-09-30T14:24:07;6.75;;;2.35;;
38851;SDS011;24605;50.092;9.182;2023-09-30T14:26:33;7.28;;;2.42;;
38851;SDS011;24605;50.092;9.182;2023-09-30T14:29:00;7.72;;;2.60;;
38851;SDS011;24605;50.092;9.182;2023-09-30T14:31:26;6.60;;;2.28;;
38851;SDS011;24605;50.092;9.182;2023-09-30T14:33:53;9.02;;;2.35;;
38851;SDS011;24605;50.092;9.182;2023-09-30T14:36:19;5.45;;;2.03;;
38851;SDS011;24605;50.092;9.182;2023-09-30T14:38:49;6.40;;;2.03;;
38851;SDS011;24605;50.092;9.182;2023-09-30T14:41:15;4.13;;;1.55;;
38851;SDS011;24605;50.092;9.182;2023-09-30T14:43:42;7.18;;;2.25;;
38851;SDS011;24605;50.092;9.182;2023-09-30T14:46:09;6.28;;;2.30;;